SBOSBO MUC / EDDM
Speedbird OnlineSpeedbird Online MUC / EDDM

Munich Airport
23:54 -4.8°C

Location Munich, Germany
Latitude: 48.353802
Longitude: 11.7861
Web Airport Website | Wikipedia
Altitude 453 Meter / 1487 Feet
Distance 904 KM / 562 Miles
from London.
Time Zone UTC +1 hours (Europe/Berlin)
Codes IATA: MUC
ICAO: EDDM
Currency £1 equals EUR 1.13
Runways
RunwayLength (m)Surface
08L4000Concrete
08R4000Concrete
26L4000Concrete
26R4000Concrete
Radio
TypeDescriptionFrequency
ACCRADAR123.9
ARRARR120.775
ATISATIS123.13
CLDCLNC DEL121.725
DIRDIRECTOR118.825
GNDGND119.4
INFOINFO120.65
RDRLCL RADAR131.225
RMPApron 2121.7
RMPApron 1121.775
RMPAron 3121.925
TWRTWR118.7
Live ATC
METAR EDDM 081420Z AUTO 07012KT 030V100 CAVOK 00/M06 Q1034 NOSIG
TAF TAF EDDM 081100Z 0812/0918 06011KT CAVOK BECMG 0816/0818 07006KT BECMG 0821/0824 VRB03KT PROB30 TEMPO 0903/0907 2000 BCFG BECMG 0909/0912 25005KT
Weather As Of 08 Feb 2023 23:54
Description Clear sky
Wind 9 km/h from East (70°)
Cloud Cover 0%
Precipitation Rain: none, Snow: none
Sunrise 07:32
Sunset 17:21
Lounges Airport Lounge World , Terminal 1
Air France KLM - Europa Lounge , Terminal 1
Rotations During the last 90 days there were
391 flights from LHR
393 flights to LHR



Support Speedbird Online

© 2017-2023 Speedbird Online